createdAt,value
2018-12-03T06:04:44.862Z,84.58
2018-12-03T06:05:44.833Z,84.78
2018-12-03T06:06:44.824Z,84.98
2018-12-03T06:07:44.838Z,84.78
2018-12-03T06:08:44.804Z,84.67
2018-12-03T06:09:44.789Z,84.78
2018-12-03T06:10:44.776Z,84.78
2018-12-03T06:11:44.766Z,84.74
2018-12-03T06:12:44.775Z,84.78
2018-12-03T06:13:44.741Z,84.88
2018-12-03T06:14:44.744Z,84.74
2018-12-03T06:15:44.743Z,84.74
2018-12-03T06:16:44.718Z,84.12
2018-12-03T06:17:44.743Z,84.84
2018-12-03T06:18:44.686Z,84.37
2018-12-03T06:19:44.676Z,84.94
2018-12-03T06:20:44.673Z,84.43
2018-12-03T06:21:44.655Z,84.53
2018-12-03T06:22:44.655Z,84.64
2018-12-03T06:23:44.654Z,84.84
2018-12-03T06:24:44.621Z,84.94
2018-12-03T06:25:44.610Z,84.74
2018-12-03T06:26:44.600Z,84.64
2018-12-03T06:27:44.594Z,84.74
2018-12-03T06:28:44.634Z,84.64
2018-12-03T06:29:44.571Z,84.64
2018-12-03T06:30:44.557Z,84.74
2018-12-03T06:31:44.548Z,84.64
2018-12-03T06:32:44.538Z,84.74
2018-12-03T06:33:44.539Z,84.74
2018-12-03T06:34:44.527Z,84.78
2018-12-03T06:35:44.506Z,84.98
2018-12-03T06:36:44.493Z,84.53
2018-12-03T06:37:44.480Z,84.84
2018-12-03T06:38:44.488Z,85.08
2018-12-03T06:39:44.457Z,84.98
2018-12-03T06:40:44.455Z,85.19
2018-12-03T06:41:44.438Z,85.35
2018-12-03T06:42:44.428Z,84.94
2018-12-03T06:43:44.431Z,84.94
2018-12-03T06:44:44.405Z,85.14
2018-12-03T06:45:44.391Z,85.14
2018-12-03T06:46:44.389Z,85.05
2018-12-03T06:47:44.379Z,84.94
2018-12-03T06:48:44.383Z,85.28
2018-12-03T06:49:51.456Z,84.84
2018-12-03T06:50:44.337Z,85.05
2018-12-03T06:51:44.328Z,85.35
2018-12-03T06:52:44.314Z,84.94
2018-12-03T06:53:44.323Z,84.43
2018-12-03T06:54:44.295Z,84.53
2018-12-03T06:55:44.282Z,84.74
2018-12-03T06:56:44.275Z,84.94
2018-12-03T06:57:44.259Z,85.05
2018-12-03T06:58:44.270Z,85.25
2018-12-03T06:59:44.239Z,85.35
2018-12-03T07:00:44.242Z,85.96
2018-12-03T07:01:44.217Z,86.27
2018-12-03T07:02:44.209Z,86.16
2018-12-03T07:03:44.228Z,85.45
2018-12-03T07:04:44.184Z,86.06
2018-12-03T07:05:44.174Z,86.27
2018-12-03T07:06:44.163Z,86.47
2018-12-03T07:07:44.154Z,86.47
2018-12-03T07:08:44.163Z,86.37
2018-12-03T07:09:44.131Z,86.88
2018-12-03T07:10:44.138Z,86.98
2018-12-03T07:11:44.106Z,86.88
2018-12-03T07:12:44.097Z,86.30
2018-12-03T07:13:44.104Z,86.47
2018-12-03T07:14:44.083Z,86.82
2018-12-03T07:15:44.065Z,86.71
2018-12-03T07:16:44.067Z,86.68
2018-12-03T07:17:44.045Z,87.12
2018-12-03T07:18:44.053Z,86.71
2018-12-03T07:19:44.021Z,86.61
2018-12-03T07:20:44.010Z,87.53
2018-12-03T07:21:44.000Z,87.32
2018-12-03T07:22:43.990Z,86.92
2018-12-03T07:23:43.998Z,87.12
2018-12-03T07:24:43.993Z,87.23
2018-12-03T07:25:43.960Z,87.43
2018-12-03T07:26:43.945Z,87.53
2018-12-03T07:27:43.937Z,87.32
2018-12-03T07:28:43.942Z,87.43
2018-12-03T07:29:43.919Z,87.43
2018-12-03T07:30:43.899Z,87.73
2018-12-03T07:31:43.892Z,87.63
2018-12-03T07:32:43.884Z,88.14
2018-12-03T07:33:43.891Z,88.20
2018-12-03T07:34:43.866Z,87.49
2018-12-03T07:35:43.848Z,88.04
2018-12-03T07:36:43.835Z,87.94
2018-12-03T07:37:43.837Z,88.45
2018-12-03T07:38:43.813Z,88.24
2018-12-03T07:39:43.874Z,88.24
2018-12-03T07:40:43.913Z,88.45
2018-12-03T07:41:43.789Z,88.85
2018-12-03T07:42:43.784Z,88.45
2018-12-03T07:43:43.761Z,88.24
2018-12-03T07:44:43.781Z,88.75
2018-12-03T07:45:43.739Z,87.43
2018-12-03T07:46:43.724Z,87.12
2018-12-03T07:47:43.720Z,86.88
2018-12-03T07:48:43.714Z,86.47
2018-12-03T07:49:43.736Z,86.16
2018-12-03T07:50:43.682Z,86.37
2018-12-03T07:51:43.670Z,85.25
2018-12-03T07:52:43.661Z,85.14
2018-12-03T07:53:43.653Z,84.84
2018-12-03T07:54:43.709Z,84.84
2018-12-03T07:55:43.629Z,84.84
2018-12-03T07:56:43.619Z,85.25
2018-12-03T07:57:43.607Z,84.74
2018-12-03T07:58:43.596Z,85.35
2018-12-03T07:59:43.614Z,85.55
2018-12-03T08:00:43.573Z,84.94
2018-12-03T08:01:43.564Z,84.53
2018-12-03T08:02:43.550Z,85.45
2018-12-03T08:03:43.538Z,85.14
2018-12-03T08:04:43.549Z,85.25
2018-12-03T08:05:43.527Z,85.25
2018-12-03T08:06:43.534Z,84.84
2018-12-03T08:07:43.498Z,85.14
2018-12-03T08:08:43.485Z,85.05
2018-12-03T08:09:43.499Z,85.45
2018-12-03T08:10:43.467Z,85.25
2018-12-03T08:11:43.452Z,84.03
2018-12-03T08:12:43.454Z,85.05
2018-12-03T08:13:43.432Z,85.35
2018-12-03T08:14:43.443Z,84.74
2018-12-03T08:15:43.409Z,84.74
2018-12-03T08:16:43.403Z,85.45
2018-12-03T08:17:43.392Z,84.84
2018-12-03T08:18:43.391Z,84.03
2018-12-03T08:19:43.383Z,84.03
2018-12-03T08:20:43.354Z,84.12
2018-12-03T08:21:43.342Z,84.94
2018-12-03T08:22:43.332Z,84.03
2018-12-03T08:23:43.339Z,83.21
2018-12-03T08:24:43.337Z,82.80
2018-12-03T08:25:43.309Z,83.11
2018-12-03T08:26:43.289Z,83.11
2018-12-03T08:27:43.280Z,82.50
2018-12-03T08:28:43.274Z,82.70
2018-12-03T08:29:43.281Z,83.11
2018-12-03T08:30:43.243Z,83.42
2018-12-03T08:31:43.233Z,81.79
2018-12-03T08:32:43.222Z,82.90
2018-12-03T08:33:43.221Z,82.70
2018-12-03T08:34:43.220Z,82.70
2018-12-03T08:35:43.187Z,82.50
2018-12-03T08:36:43.178Z,82.50
2018-12-03T08:37:43.173Z,81.79
2018-12-03T08:38:43.156Z,83.01
2018-12-03T08:39:43.290Z,82.80
2018-12-03T08:40:43.149Z,81.68
2018-12-03T08:41:43.124Z,82.40
2018-12-03T08:42:43.113Z,82.80
2018-12-03T08:43:43.104Z,82.70
2018-12-03T08:44:43.095Z,83.21
2018-12-03T08:45:43.103Z,82.74
2018-12-03T08:46:43.071Z,83.42
2018-12-03T08:47:43.079Z,83.11
2018-12-03T08:48:43.055Z,83.25
2018-12-03T08:49:43.037Z,82.94
2018-12-03T08:50:43.048Z,81.93
2018-12-03T08:51:43.018Z,82.23
2018-12-03T08:52:43.008Z,82.54
2018-12-03T08:53:42.996Z,82.13
2018-12-03T08:54:42.985Z,82.09
2018-12-03T08:55:42.991Z,82.40
2018-12-03T08:56:42.961Z,81.79
2018-12-03T08:57:42.966Z,81.38
2018-12-03T08:58:42.944Z,80.66
2018-12-03T08:59:42.927Z,81.48
2018-12-03T09:00:42.935Z,81.38
2018-12-03T09:01:42.906Z,81.38
2018-12-03T09:02:42.895Z,80.77
2018-12-03T09:03:42.931Z,81.07
2018-12-03T09:04:42.874Z,81.17
2018-12-03T09:05:42.884Z,81.65
2018-12-03T09:06:42.861Z,80.16
2018-12-03T09:07:42.842Z,80.26
2018-12-03T09:08:42.831Z,80.77
2018-12-03T09:09:42.824Z,80.26
2018-12-03T09:10:42.829Z,80.05
2018-12-03T09:11:42.805Z,79.91
2018-12-03T09:12:42.792Z,81.24
2018-12-03T09:13:42.777Z,81.24
2018-12-03T09:14:42.763Z,80.56
2018-12-03T09:15:42.774Z,80.77
2018-12-03T09:16:42.743Z,81.24
2018-12-03T09:17:42.735Z,80.87
2018-12-03T09:18:42.727Z,81.17
2018-12-03T09:19:42.711Z,80.73
2018-12-03T09:20:42.731Z,80.77
2018-12-03T09:21:42.686Z,80.77
2018-12-03T09:22:42.682Z,80.46
2018-12-03T09:23:42.669Z,80.36
2018-12-03T09:24:42.656Z,81.27
2018-12-03T09:25:42.662Z,81.07
2018-12-03T09:26:42.635Z,80.66
2018-12-03T09:27:42.621Z,79.95
2018-12-03T09:28:42.629Z,80.26
2018-12-03T09:29:42.601Z,79.95
2018-12-03T09:30:42.611Z,80.46
2018-12-03T09:31:42.578Z,79.95
2018-12-03T09:32:42.583Z,80.56
2018-12-03T09:33:42.557Z,81.27
2018-12-03T09:34:42.550Z,81.07
2018-12-03T09:35:42.560Z,80.56
2018-12-03T09:36:42.526Z,81.48
2018-12-03T09:37:42.512Z,81.99
2018-12-03T09:38:42.503Z,81.27
2018-12-03T09:39:42.492Z,81.65
2018-12-03T09:40:42.508Z,81.38
2018-12-03T09:41:42.472Z,81.99
2018-12-03T09:42:42.460Z,82.29
2018-12-03T09:43:42.454Z,82.90
2018-12-03T09:44:42.441Z,83.11
2018-12-03T09:45:42.443Z,83.01
2018-12-03T09:46:42.435Z,82.80
2018-12-03T09:47:42.444Z,83.31
2018-12-03T09:48:42.395Z,83.11
2018-12-03T09:49:42.381Z,83.31
2018-12-03T09:50:42.393Z,83.51
2018-12-03T09:51:42.377Z,83.62
2018-12-03T09:52:42.348Z,83.82
2018-12-03T09:53:42.341Z,84.84
2018-12-03T09:54:42.328Z,84.58
2018-12-03T09:55:42.347Z,84.74
2018-12-03T09:56:42.308Z,85.14
2018-12-03T09:57:42.293Z,85.55
2018-12-03T09:58:42.293Z,85.75
2018-12-03T09:59:42.273Z,85.35
2018-12-03T10:00:42.282Z,85.75
2018-12-03T10:01:42.250Z,86.30
2018-12-03T10:02:42.282Z,86.21
2018-12-03T10:03:42.229Z,85.66
2018-12-03T10:04:42.228Z,85.19
2018-12-03T10:05:42.224Z,84.98
2018-12-03T10:06:42.206Z,85.14
2018-12-03T10:07:42.188Z,84.98
2018-12-03T10:08:42.175Z,84.27
2018-12-03T10:09:42.167Z,84.98
2018-12-03T10:10:42.172Z,84.78
2018-12-03T10:11:42.156Z,85.14
2018-12-03T10:12:42.138Z,84.53
2018-12-03T10:13:42.121Z,83.42
2018-12-03T10:14:42.115Z,83.72
2018-12-03T10:15:42.124Z,83.89
2018-12-03T10:16:42.086Z,82.66
2018-12-03T10:17:42.073Z,82.76
2018-12-03T10:18:42.070Z,82.76
2018-12-03T10:19:42.053Z,82.87
2018-12-03T10:20:42.333Z,81.54
2018-12-03T10:21:42.034Z,83.07
2018-12-03T10:22:42.021Z,82.97
2018-12-03T10:23:42.010Z,82.97
2018-12-03T10:24:42.001Z,82.82
2018-12-03T10:25:41.990Z,82.76
2018-12-03T10:26:41.999Z,82.62
2018-12-03T10:27:41.970Z,82.93
2018-12-03T10:28:41.983Z,82.32
2018-12-03T10:29:41.946Z,82.42
2018-12-03T10:30:41.933Z,82.93
2018-12-03T10:31:41.959Z,82.89
2018-12-03T10:32:41.917Z,82.42
2018-12-03T10:33:41.905Z,82.32
2018-12-03T10:34:41.889Z,81.91
2018-12-03T10:35:41.883Z,81.91
2018-12-03T10:36:41.892Z,81.57
2018-12-03T10:37:41.859Z,81.29
2018-12-03T10:38:41.871Z,80.33
2018-12-03T10:39:41.896Z,79.79
2018-12-03T10:40:41.862Z,79.59
2018-12-03T10:41:41.865Z,80.13
2018-12-03T10:42:41.799Z,79.72
2018-12-03T10:43:41.801Z,79.83
2018-12-03T10:44:41.778Z,80.17
2018-12-03T10:45:41.772Z,80.47
2018-12-03T10:46:41.784Z,80.58
2018-12-03T10:47:41.747Z,80.68
2018-12-03T10:48:41.737Z,80.17
2018-12-03T10:49:41.730Z,80.37
2018-12-03T10:50:41.755Z,80.07
2018-12-03T10:51:41.750Z,80.37
2018-12-03T10:52:41.692Z,79.77
2018-12-03T10:53:41.682Z,79.93
2018-12-03T10:54:41.705Z,79.22
2018-12-03T10:55:41.660Z,79.72
2018-12-03T10:56:41.690Z,79.59
2018-12-03T10:57:41.655Z,78.78
2018-12-03T10:58:41.665Z,79.28
2018-12-03T10:59:41.617Z,78.98
2018-12-03T11:00:41.603Z,79.90
2018-12-03T11:01:41.618Z,78.81
2018-12-03T11:02:41.586Z,79.02
2018-12-03T11:03:41.578Z,79.02
2018-12-03T11:04:41.563Z,78.71
2018-12-03T11:05:41.549Z,78.91
2018-12-03T11:06:41.557Z,78.51
2018-12-03T11:07:41.533Z,78.41
2018-12-03T11:08:41.529Z,77.80
2018-12-03T11:09:41.506Z,78.10
2018-12-03T11:10:41.496Z,78.20
2018-12-03T11:11:41.536Z,78.57
2018-12-03T11:12:41.503Z,78.10
2018-12-03T11:13:41.463Z,78.47
2018-12-03T11:14:41.472Z,77.97
2018-12-03T11:15:41.440Z,78.27
2018-12-03T11:16:41.470Z,77.25
2018-12-03T11:17:41.417Z,77.05
2018-12-03T11:18:41.414Z,78.06
2018-12-03T11:19:41.398Z,78.33
2018-12-03T11:20:41.400Z,78.19
2018-12-03T11:21:41.398Z,76.78
2018-12-03T11:22:41.363Z,76.40
2018-12-03T11:23:41.356Z,77.12
2018-12-03T11:24:41.347Z,75.09
2018-12-03T11:25:41.345Z,76.54
2018-12-03T11:26:41.339Z,76.44
2018-12-03T11:27:41.319Z,77.25
2018-12-03T11:28:41.302Z,77.15
2018-12-03T11:29:41.311Z,77.36
2018-12-03T11:30:41.277Z,75.56
2018-12-03T11:31:41.291Z,77.49
2018-12-03T11:32:41.263Z,77.49
2018-12-03T11:33:41.272Z,77.39
2018-12-03T11:34:41.238Z,77.49
2018-12-03T11:35:41.223Z,77.90
2018-12-03T11:36:41.232Z,77.70
2018-12-03T11:37:41.201Z,77.39
2018-12-03T11:38:41.197Z,77.59
2018-12-03T11:39:41.201Z,77.39
2018-12-03T11:40:41.177Z,76.98
2018-12-03T11:41:41.185Z,77.63
2018-12-03T11:42:41.149Z,77.53
2018-12-03T11:43:41.139Z,77.29
2018-12-03T11:44:41.127Z,78.24
2018-12-03T11:45:41.156Z,78.85
2018-12-03T11:46:41.123Z,78.85
2018-12-03T11:47:41.110Z,78.64
2018-12-03T11:48:41.110Z,77.94
2018-12-03T11:49:41.090Z,78.04
2018-12-03T11:50:41.071Z,77.83
2018-12-03T11:51:41.067Z,77.12
2018-12-03T11:52:41.041Z,77.22
2018-12-03T11:53:41.030Z,75.70
2018-12-03T11:54:41.030Z,76.01
2018-12-03T11:55:41.007Z,76.78
2018-12-03T11:56:41.019Z,75.43
2018-12-03T11:57:40.994Z,74.17
2018-12-03T11:58:40.977Z,74.65
2018-12-03T11:59:40.968Z,73.19
2018-12-03T12:00:40.952Z,72.45
2018-12-03T12:01:40.943Z,72.17
2018-12-03T12:02:40.952Z,73.53
2018-12-03T12:03:42.798Z,73.63
2018-12-03T12:04:40.908Z,73.70
2018-12-03T12:05:40.898Z,73.19
2018-12-03T12:06:40.902Z,73.36
2018-12-03T12:07:42.511Z,71.94
2018-12-03T12:08:40.868Z,72.48
2018-12-03T12:09:40.855Z,72.99
2018-12-03T12:10:40.849Z,72.11
2018-12-03T12:11:40.835Z,72.72
2018-12-03T12:12:40.876Z,73.12
2018-12-03T12:13:40.877Z,73.02
2018-12-03T12:14:40.802Z,72.61
2018-12-03T12:15:40.789Z,73.87
2018-12-03T12:16:40.787Z,73.66
2018-12-03T12:17:40.786Z,73.06
2018-12-03T12:18:40.758Z,74.17
2018-12-03T12:19:40.767Z,74.58
2018-12-03T12:20:40.738Z,74.27
2018-12-03T12:21:40.725Z,74.58
2018-12-03T12:22:40.746Z,73.50
2018-12-03T12:23:40.715Z,74.01
2018-12-03T12:24:40.693Z,74.65
2018-12-03T12:25:40.689Z,75.63
2018-12-03T12:26:40.671Z,75.26
2018-12-03T12:27:40.698Z,75.67
2018-12-03T12:28:40.650Z,75.76
2018-12-03T12:29:40.638Z,77.43
2018-12-03T12:30:40.626Z,77.33
2018-12-03T12:31:40.622Z,77.53
2018-12-03T12:32:40.630Z,78.04
2018-12-03T12:33:40.594Z,77.43
2018-12-03T12:34:40.583Z,77.43
2018-12-03T12:35:40.579Z,78.00
2018-12-03T12:36:40.564Z,77.73
2018-12-03T12:37:40.571Z,78.34
2018-12-03T12:38:40.544Z,78.24
2018-12-03T12:39:40.551Z,78.81
2018-12-03T12:40:40.519Z,79.22
2018-12-03T12:41:40.508Z,78.71
2018-12-03T12:42:40.515Z,78.41
2018-12-03T12:43:40.489Z,78.81
2018-12-03T12:44:40.491Z,79.02
2018-12-03T12:45:40.466Z,78.24
2018-12-03T12:46:40.457Z,78.55
2018-12-03T12:47:40.461Z,78.95
2018-12-03T12:48:40.431Z,79.36
2018-12-03T12:49:40.423Z,79.36
2018-12-03T12:50:40.414Z,79.90
2018-12-03T12:51:40.396Z,78.99
2018-12-03T12:52:40.426Z,80.21
2018-12-03T12:53:40.377Z,79.60
2018-12-03T12:54:40.365Z,79.29
2018-12-03T12:55:40.353Z,80.41
2018-12-03T12:56:40.346Z,81.02
2018-12-03T12:57:40.352Z,80.92
2018-12-03T12:58:40.331Z,80.92
2018-12-03T12:59:40.311Z,80.31
2018-12-03T13:00:40.455Z,80.92
2018-12-03T13:01:40.287Z,81.63
2018-12-03T13:02:40.297Z,81.84
2018-12-03T13:03:40.272Z,82.75
2018-12-03T13:04:40.258Z,82.28
2018-12-03T13:05:40.250Z,82.85
2018-12-03T13:06:40.233Z,82.89
2018-12-03T13:07:40.247Z,82.59
2018-12-03T13:08:40.226Z,81.57
2018-12-03T13:09:40.200Z,81.16
2018-12-03T13:10:40.196Z,81.26
2018-12-03T13:11:40.193Z,81.06
2018-12-03T13:12:40.188Z,80.96
2018-12-03T13:13:40.159Z,81.16
2018-12-03T13:14:40.151Z,81.57
2018-12-03T13:15:40.134Z,80.96
2018-12-03T13:16:40.129Z,81.12
2018-12-03T13:17:40.134Z,81.53
2018-12-03T13:18:40.103Z,81.57
2018-12-03T13:19:40.094Z,81.37
2018-12-03T13:20:40.093Z,81.12
2018-12-03T13:21:40.069Z,80.72
2018-12-03T13:22:40.077Z,80.55
2018-12-03T13:23:40.048Z,79.94
2018-12-03T13:24:40.038Z,80.55
2018-12-03T13:25:40.028Z,80.62
2018-12-03T13:26:40.027Z,80.31
2018-12-03T13:27:40.025Z,80.24
2018-12-03T13:28:40.004Z,80.31
2018-12-03T13:29:39.981Z,80.85
2018-12-03T13:30:39.978Z,79.74
2018-12-03T13:31:39.963Z,80.35
2018-12-03T13:32:39.969Z,80.65
2018-12-03T13:33:39.940Z,80.35
2018-12-03T13:34:39.925Z,80.76
2018-12-03T13:35:39.924Z,81.06
2018-12-03T13:36:39.904Z,80.45
2018-12-03T13:37:40.181Z,80.45
2018-12-03T13:38:39.884Z,80.15
2018-12-03T13:39:39.871Z,80.24
2018-12-03T13:40:39.859Z,80.65
2018-12-03T13:41:39.857Z,80.55
2018-12-03T13:42:39.843Z,80.55
2018-12-03T13:43:39.855Z,80.24
2018-12-03T13:44:39.820Z,80.00
2018-12-03T13:45:39.805Z,80.62
2018-12-03T13:46:39.808Z,79.39
2018-12-03T13:47:39.786Z,79.70
2018-12-03T13:48:39.794Z,79.80
2018-12-03T13:49:39.765Z,79.56
2018-12-03T13:50:39.754Z,78.44
2018-12-03T13:51:39.751Z,79.16
2018-12-03T13:52:39.741Z,78.95
2018-12-03T13:53:39.742Z,78.85
2018-12-03T13:54:39.709Z,78.64
2018-12-03T13:55:39.696Z,78.89
2018-12-03T13:56:39.698Z,79.16
2018-12-03T13:57:39.676Z,78.44
2018-12-03T13:58:39.682Z,79.19
2018-12-03T13:59:39.654Z,79.09
2018-12-03T14:00:39.647Z,79.39
2018-12-03T14:01:39.636Z,79.60
2018-12-03T14:02:39.644Z,79.80
2018-12-03T14:03:39.632Z,80.51
2018-12-03T14:04:39.599Z,79.90
2018-12-03T14:05:39.589Z,80.04
2018-12-03T14:06:39.579Z,80.24
2018-12-03T14:07:39.594Z,80.04
2018-12-03T14:08:39.575Z,80.55
2018-12-03T14:09:39.545Z,81.46
2018-12-03T14:10:39.541Z,81.37
2018-12-03T14:11:39.520Z,81.16
2018-12-03T14:12:39.521Z,81.26
2018-12-03T14:13:39.534Z,80.55
2018-12-03T14:14:39.488Z,80.76
2018-12-03T14:15:39.491Z,81.40
2018-12-03T14:16:42.511Z,81.10
2018-12-03T14:17:39.458Z,81.30
2018-12-03T14:18:39.464Z,81.30
2018-12-03T14:19:39.446Z,81.10
2018-12-03T14:20:39.424Z,81.10
2018-12-03T14:21:39.415Z,81.71
2018-12-03T14:22:39.421Z,81.77
2018-12-03T14:23:39.411Z,81.51
2018-12-03T14:24:39.379Z,81.60
2018-12-03T14:25:39.384Z,81.81
2018-12-03T14:26:39.417Z,81.81
2018-12-03T14:27:39.358Z,81.40
2018-12-03T14:28:39.360Z,81.57
2018-12-03T14:29:39.332Z,81.37
2018-12-03T14:30:39.316Z,81.10
2018-12-03T14:31:39.317Z,80.49
2018-12-03T14:32:39.290Z,80.99
2018-12-03T14:33:39.297Z,81.30
2018-12-03T14:34:39.278Z,81.40
2018-12-03T14:35:39.261Z,81.40
2018-12-03T14:36:39.249Z,81.60
2018-12-03T14:37:39.246Z,81.40
2018-12-03T14:38:39.259Z,81.13
2018-12-03T14:39:39.230Z,81.65
2018-12-03T14:40:39.205Z,82.26
2018-12-03T14:41:39.192Z,81.74
2018-12-03T14:42:39.185Z,82.05
2018-12-03T14:43:39.210Z,81.65
2018-12-03T14:44:39.158Z,82.05
2018-12-03T14:45:39.148Z,81.85
2018-12-03T14:46:39.137Z,82.15
2018-12-03T14:47:39.133Z,81.85
2018-12-03T14:48:39.146Z,81.54
2018-12-03T14:49:39.140Z,82.46
2018-12-03T14:50:39.094Z,81.54
2018-12-03T14:51:39.095Z,81.54
2018-12-03T14:52:39.084Z,81.04
2018-12-03T14:53:39.080Z,81.65
2018-12-03T14:54:39.060Z,81.34
2018-12-03T14:55:39.056Z,81.74
2018-12-03T14:56:39.037Z,81.34
2018-12-03T14:57:39.021Z,81.54
2018-12-03T14:58:39.024Z,81.24
2018-12-03T14:59:38.997Z,81.58
2018-12-03T15:00:38.990Z,81.07
2018-12-03T15:01:38.985Z,81.58
2018-12-03T15:02:38.966Z,81.88
2018-12-03T15:03:39.021Z,81.79
2018-12-03T15:04:38.941Z,81.85
2018-12-03T15:05:38.932Z,83.01
2018-12-03T15:06:38.920Z,82.29
2018-12-03T15:07:38.917Z,82.09
2018-12-03T15:08:38.924Z,81.68
2018-12-03T15:09:38.889Z,82.19
2018-12-03T15:10:38.879Z,82.60
2018-12-03T15:11:38.874Z,82.09
2018-12-03T15:12:38.857Z,81.99
2018-12-03T15:13:38.863Z,82.29
2018-12-03T15:14:38.837Z,81.99
2018-12-03T15:15:38.826Z,81.68
2018-12-03T15:16:38.812Z,82.19
2018-12-03T15:17:38.803Z,81.68
2018-12-03T15:18:38.821Z,81.68
2018-12-03T15:19:38.778Z,81.88
2018-12-03T15:20:38.766Z,82.29
2018-12-03T15:21:38.756Z,83.01
2018-12-03T15:22:38.753Z,82.40
2018-12-03T15:23:38.758Z,82.70
2018-12-03T15:24:38.727Z,82.29
2018-12-03T15:25:38.714Z,82.19
2018-12-03T15:26:38.746Z,82.29
2018-12-03T15:27:38.696Z,82.29
2018-12-03T15:28:38.711Z,81.79
2018-12-03T15:29:38.672Z,82.29
2018-12-03T15:30:38.661Z,82.60
2018-12-03T15:31:38.647Z,81.88
2018-12-03T15:32:38.639Z,81.88
2018-12-03T15:33:38.626Z,81.88
2018-12-03T15:34:38.633Z,81.79
2018-12-03T15:35:38.614Z,81.68
2018-12-03T15:36:38.595Z,82.19
2018-12-03T15:37:38.580Z,81.88
2018-12-03T15:38:38.573Z,81.68
2018-12-03T15:39:38.585Z,82.50
2018-12-03T15:40:38.550Z,81.88
2018-12-03T15:41:38.538Z,81.79
2018-12-03T15:42:38.539Z,81.17
2018-12-03T15:43:38.515Z,81.48
2018-12-03T15:44:38.523Z,81.68
2018-12-03T15:45:38.497Z,81.27
2018-12-03T15:46:38.485Z,81.68
2018-12-03T15:47:38.476Z,81.48
2018-12-03T15:48:38.466Z,81.38
2018-12-03T15:49:38.470Z,81.88
2018-12-03T15:50:38.438Z,81.68
2018-12-03T15:51:38.442Z,81.17
2018-12-03T15:52:38.417Z,81.88
2018-12-03T15:53:38.407Z,81.24
2018-12-03T15:54:38.420Z,81.79
2018-12-03T15:55:38.383Z,82.05
2018-12-03T15:56:38.374Z,82.56
2018-12-03T15:57:38.364Z,82.70
2018-12-03T15:58:38.352Z,83.11
2018-12-03T15:59:38.382Z,82.26
2018-12-03T16:00:38.445Z,82.05
2018-12-03T16:01:38.321Z,81.95
2018-12-03T16:02:38.316Z,81.65
2018-12-03T16:03:38.308Z,81.24
2018-12-03T16:04:38.311Z,81.68
2018-12-03T16:05:38.292Z,81.54
2018-12-03T16:06:38.268Z,81.85
2018-12-03T16:07:38.261Z,81.74
2018-12-03T16:08:38.246Z,82.80
2018-12-03T16:09:38.260Z,82.70
2018-12-03T16:10:38.233Z,82.70
2018-12-03T16:11:38.220Z,83.01
2018-12-03T16:12:38.207Z,82.60
2018-12-03T16:13:38.202Z,82.56
2018-12-03T16:14:38.196Z,82.50
2018-12-03T16:15:38.166Z,82.40
2018-12-03T16:16:38.154Z,82.90
2018-12-03T16:17:38.171Z,82.50
2018-12-03T16:18:38.139Z,81.79
2018-12-03T16:19:38.143Z,81.68
2018-12-03T16:20:38.112Z,82.19
2018-12-03T16:21:38.104Z,82.29
2018-12-03T16:22:38.092Z,82.66
2018-12-03T16:23:38.080Z,82.70
2018-12-03T16:24:38.735Z,82.70
2018-12-03T16:25:38.063Z,82.80
2018-12-03T16:26:38.045Z,82.90
2018-12-03T16:27:38.055Z,82.09
2018-12-03T16:28:38.025Z,81.68
2018-12-03T16:29:38.033Z,81.38
2018-12-03T16:30:38.008Z,81.68
2018-12-03T16:31:37.994Z,81.58
2018-12-03T16:32:37.982Z,81.88
2018-12-03T16:33:37.969Z,81.68
2018-12-03T16:34:37.987Z,81.88
2018-12-03T16:35:37.959Z,81.68
2018-12-03T16:36:37.945Z,81.88
2018-12-03T16:37:37.929Z,81.68
2018-12-03T16:38:37.917Z,81.88
2018-12-03T16:39:37.928Z,81.68
2018-12-03T16:40:37.897Z,81.58
2018-12-03T16:41:37.897Z,81.68
2018-12-03T16:42:37.874Z,81.58
2018-12-03T16:43:37.872Z,81.41
2018-12-03T16:44:37.869Z,81.17
2018-12-03T16:45:37.840Z,80.50
2018-12-03T16:46:37.829Z,81.52
2018-12-03T16:47:37.819Z,81.41
2018-12-03T16:48:37.817Z,81.31
2018-12-03T16:49:37.824Z,81.01
2018-12-03T16:50:37.790Z,80.70
2018-12-03T16:51:37.773Z,80.50
2018-12-03T16:52:37.762Z,80.60
2018-12-03T16:53:37.750Z,80.40
2018-12-03T16:54:37.774Z,79.95
2018-12-03T16:55:37.729Z,80.66
2018-12-03T16:56:37.720Z,80.40
2018-12-03T16:57:37.712Z,79.34
2018-12-03T16:58:37.702Z,79.64
2018-12-03T16:59:37.704Z,79.14
2018-12-03T17:00:37.698Z,78.97
2018-12-03T17:01:37.664Z,79.07
2018-12-03T17:02:37.651Z,78.63
2018-12-03T17:03:37.652Z,79.14
2018-12-03T17:04:37.660Z,78.66
2018-12-03T17:05:37.629Z,78.42
2018-12-03T17:06:37.629Z,78.12
2018-12-03T17:07:37.599Z,78.22
2018-12-03T17:08:37.588Z,78.73
2018-12-03T17:09:37.666Z,78.32
2018-12-03T17:10:37.570Z,78.42
2018-12-03T17:11:37.565Z,77.81
2018-12-03T17:12:37.551Z,77.61
2018-12-03T17:13:37.533Z,78.12
2018-12-03T17:14:37.525Z,77.61
2018-12-03T17:15:37.532Z,78.02
2018-12-03T17:16:37.499Z,78.02
2018-12-03T17:17:37.494Z,77.91
2018-12-03T17:18:37.529Z,78.63
2018-12-03T17:19:37.492Z,78.12
2018-12-03T17:20:37.457Z,78.32
2018-12-03T17:21:37.446Z,78.22
2018-12-03T17:22:37.439Z,77.81
2018-12-03T17:23:37.441Z,78.12
2018-12-03T17:24:37.438Z,78.12
2018-12-03T17:25:37.401Z,78.12
2018-12-03T17:26:37.395Z,77.51
2018-12-03T17:27:37.385Z,78.02
2018-12-03T17:28:37.367Z,78.42
2018-12-03T17:29:37.385Z,78.12
2018-12-03T17:30:37.344Z,78.12
2018-12-03T17:31:37.338Z,77.40
2018-12-03T17:32:37.332Z,78.02
2018-12-03T17:33:37.333Z,77.40
2018-12-03T17:34:37.301Z,77.71
2018-12-03T17:35:37.310Z,77.51
2018-12-03T17:36:37.280Z,77.71
2018-12-03T17:37:37.270Z,77.61
2018-12-03T17:38:37.259Z,77.71
2018-12-03T17:39:37.262Z,77.71
2018-12-03T17:40:37.261Z,77.61
2018-12-03T17:41:37.234Z,78.02
2018-12-03T17:42:37.214Z,77.85
2018-12-03T17:43:37.214Z,78.05
2018-12-03T17:44:37.196Z,77.95
2018-12-03T17:45:37.206Z,78.02
2018-12-03T17:46:37.173Z,77.55
2018-12-03T17:47:37.170Z,78.26
2018-12-03T17:48:37.153Z,77.75
2018-12-03T17:49:37.139Z,78.16
2018-12-03T17:50:37.176Z,77.85
2018-12-03T17:51:37.117Z,77.85
2018-12-03T17:52:37.150Z,77.95
2018-12-03T17:53:37.098Z,77.55
2018-12-03T17:54:37.088Z,78.05
2018-12-03T17:55:37.100Z,77.64
2018-12-03T17:56:37.077Z,78.36
2018-12-03T17:57:37.051Z,78.46
2018-12-03T17:58:37.039Z,77.55
2018-12-03T17:59:37.030Z,77.85
2018-12-03T18:00:37.056Z,78.56
2018-12-03T18:01:37.010Z,77.85
2018-12-03T18:02:36.994Z,78.26
2018-12-03T18:03:36.997Z,78.26
2018-12-03T18:04:36.974Z,77.75
2018-12-03T18:05:36.997Z,77.95
2018-12-03T18:06:36.957Z,77.85
2018-12-03T18:07:36.965Z,77.75
2018-12-03T18:08:36.930Z,78.05
2018-12-03T18:09:36.919Z,77.55
2018-12-03T18:10:37.124Z,78.16
2018-12-03T18:11:36.918Z,78.16
2018-12-03T18:12:36.933Z,77.85
2018-12-03T18:13:36.876Z,77.64
2018-12-03T18:14:36.863Z,77.44
2018-12-03T18:15:36.872Z,78.05
2018-12-03T18:16:36.850Z,77.85
2018-12-03T18:17:36.834Z,77.75
2018-12-03T18:18:36.821Z,77.75
2018-12-03T18:19:36.811Z,77.75
2018-12-03T18:20:36.817Z,77.24
2018-12-03T18:21:36.789Z,77.85
2018-12-03T18:22:36.779Z,77.64
2018-12-03T18:23:36.765Z,77.75
2018-12-03T18:24:36.754Z,77.75
2018-12-03T18:25:36.768Z,77.85
2018-12-03T18:26:36.738Z,77.55
2018-12-03T18:27:36.740Z,77.71
2018-12-03T18:28:36.714Z,77.44
2018-12-03T18:29:36.703Z,77.55
2018-12-03T18:30:36.710Z,77.71
2018-12-03T18:31:36.684Z,77.51
2018-12-03T18:32:36.679Z,77.81
2018-12-03T18:33:36.723Z,77.61
2018-12-03T18:34:36.668Z,77.75
2018-12-03T18:35:36.692Z,77.55
2018-12-03T18:36:36.634Z,77.61
2018-12-03T18:37:36.616Z,77.85
2018-12-03T18:38:36.637Z,77.64
2018-12-03T18:39:36.634Z,77.95
2018-12-03T18:40:36.657Z,77.44
2018-12-03T18:41:36.571Z,77.61
2018-12-03T18:42:36.564Z,78.32
2018-12-03T18:43:36.574Z,77.81
2018-12-03T18:44:36.570Z,78.02
2018-12-03T18:45:36.648Z,77.61
2018-12-03T18:46:36.554Z,77.64
2018-12-03T18:47:36.615Z,77.40
2018-12-03T18:48:36.497Z,77.64
2018-12-03T18:49:36.499Z,77.64
2018-12-03T18:50:36.498Z,77.81
2018-12-03T18:51:36.476Z,78.16
2018-12-03T18:52:36.481Z,78.16
2018-12-03T18:53:36.524Z,77.91
2018-12-03T18:54:36.463Z,78.02
2018-12-03T18:55:36.433Z,78.16
2018-12-03T18:56:36.414Z,78.12